createdAt,value
2022-11-29T00:00:32.129Z,1007.48
2022-11-29T00:01:32.123Z,1007.40
2022-11-29T00:02:32.236Z,1007.42
2022-11-29T00:03:32.110Z,1007.40
2022-11-29T00:04:32.094Z,1007.46
2022-11-29T00:05:32.095Z,1007.42
2022-11-29T00:06:32.113Z,1007.41
2022-11-29T00:07:32.092Z,1007.44
2022-11-29T00:08:32.073Z,1007.38
2022-11-29T00:09:32.037Z,1007.44
2022-11-29T00:10:32.061Z,1007.42
2022-11-29T00:11:32.034Z,1007.48
2022-11-29T00:12:32.004Z,1007.43
2022-11-29T00:13:32.006Z,1007.43
2022-11-29T00:14:31.984Z,1007.44
2022-11-29T00:15:31.987Z,1007.42
2022-11-29T00:16:32.057Z,1007.43
2022-11-29T00:17:31.941Z,1007.46
2022-11-29T00:18:31.948Z,1007.45
2022-11-29T00:19:31.954Z,1007.45
2022-11-29T00:20:31.973Z,1007.43
2022-11-29T00:21:31.895Z,1007.46
2022-11-29T00:22:31.885Z,1007.44
2022-11-29T00:23:31.878Z,1007.49
2022-11-29T00:24:31.872Z,1007.42
2022-11-29T00:25:31.854Z,1007.42
2022-11-29T00:26:38.358Z,1007.44
2022-11-29T00:27:31.831Z,1007.39
2022-11-29T00:28:31.857Z,1007.44
2022-11-29T00:29:31.820Z,1007.38
2022-11-29T00:30:31.854Z,1007.41
2022-11-29T00:31:31.803Z,1007.39
2022-11-29T00:32:31.792Z,1007.44
2022-11-29T00:33:31.759Z,1007.43
2022-11-29T00:34:31.771Z,1007.42
2022-11-29T00:35:31.753Z,1007.43
2022-11-29T00:36:31.755Z,1007.42
2022-11-29T00:37:31.746Z,1007.48
2022-11-29T00:38:31.709Z,1007.44
2022-11-29T00:39:31.694Z,1007.44
2022-11-29T00:40:31.694Z,1007.46
2022-11-29T00:41:31.662Z,1007.46
2022-11-29T00:42:31.679Z,1007.48
2022-11-29T00:43:31.653Z,1007.43
2022-11-29T00:44:31.659Z,1007.46
2022-11-29T00:45:31.627Z,1007.47
2022-11-29T00:46:31.683Z,1007.47
2022-11-29T00:47:31.615Z,1007.42
2022-11-29T00:48:31.624Z,1007.44
2022-11-29T00:49:31.574Z,1007.48
2022-11-29T00:50:31.597Z,1007.49
2022-11-29T00:51:31.619Z,1007.51
2022-11-29T00:52:31.578Z,1007.45
2022-11-29T00:53:31.541Z,1007.46
2022-11-29T00:54:31.548Z,1007.45
2022-11-29T00:55:31.524Z,1007.47
2022-11-29T00:56:38.046Z,1007.48
2022-11-29T00:57:31.487Z,1007.47
2022-11-29T00:58:31.485Z,1007.47
2022-11-29T00:59:31.487Z,1007.44
2022-11-29T01:00:31.481Z,1007.46
2022-11-29T01:01:31.599Z,1007.46
2022-11-29T01:02:31.527Z,1007.46
2022-11-29T01:03:31.444Z,1007.46
2022-11-29T01:04:31.442Z,1007.49
2022-11-29T01:05:31.414Z,1007.49
2022-11-29T01:06:31.425Z,1007.45
2022-11-29T01:07:31.395Z,1007.41
2022-11-29T01:08:31.373Z,1007.48
2022-11-29T01:09:31.353Z,1007.44
2022-11-29T01:10:31.370Z,1007.46
2022-11-29T01:11:31.341Z,1007.47
2022-11-29T01:12:31.328Z,1007.42
2022-11-29T01:13:31.310Z,1007.45
2022-11-29T01:14:31.304Z,1007.42
2022-11-29T01:15:31.285Z,1007.47
2022-11-29T01:16:31.399Z,1007.48
2022-11-29T01:17:31.291Z,1007.46
2022-11-29T01:18:31.261Z,1007.44
2022-11-29T01:19:31.239Z,1007.50
2022-11-29T01:20:31.237Z,1007.49
2022-11-29T01:21:31.252Z,1007.48
2022-11-29T01:22:31.264Z,1007.51
2022-11-29T01:23:31.200Z,1007.47
2022-11-29T01:24:31.261Z,1007.46
2022-11-29T01:25:31.204Z,1007.49
2022-11-29T01:26:31.191Z,1007.45
2022-11-29T01:27:31.185Z,1007.50
2022-11-29T01:28:31.141Z,1007.53
2022-11-29T01:29:31.137Z,1007.52
2022-11-29T01:30:31.163Z,1007.52
2022-11-29T01:31:31.164Z,1007.52
2022-11-29T01:32:31.121Z,1007.53
2022-11-29T01:33:31.095Z,1007.50
2022-11-29T01:34:31.077Z,1007.51
2022-11-29T01:35:31.123Z,1007.54
2022-11-29T01:36:31.077Z,1007.54
2022-11-29T01:37:31.048Z,1007.53
2022-11-29T01:38:31.034Z,1007.56
2022-11-29T01:39:31.064Z,1007.57
2022-11-29T01:40:31.055Z,1007.58
2022-11-29T01:41:31.023Z,1007.59
2022-11-29T01:42:31.005Z,1007.58
2022-11-29T01:43:30.990Z,1007.61
2022-11-29T01:44:30.985Z,1007.61
2022-11-29T01:45:30.988Z,1007.61
2022-11-29T01:46:30.985Z,1007.64
2022-11-29T01:47:30.946Z,1007.65
2022-11-29T01:48:30.937Z,1007.62
2022-11-29T01:49:30.928Z,1007.68
2022-11-29T01:50:30.902Z,1007.68
2022-11-29T01:51:30.905Z,1007.67
2022-11-29T01:52:30.884Z,1007.66
2022-11-29T01:53:30.911Z,1007.65
2022-11-29T01:54:30.901Z,1007.70
2022-11-29T01:55:30.889Z,1007.69
2022-11-29T01:56:30.839Z,1007.69
2022-11-29T01:57:30.851Z,1007.69
2022-11-29T01:58:30.815Z,1007.69
2022-11-29T01:59:30.834Z,1007.72
2022-11-29T02:00:30.793Z,1007.70
2022-11-29T02:01:30.887Z,1007.74
2022-11-29T02:02:30.841Z,1007.72
2022-11-29T02:03:30.765Z,1007.75
2022-11-29T02:04:30.748Z,1007.78
2022-11-29T02:05:30.739Z,1007.74
2022-11-29T02:06:30.737Z,1007.77
2022-11-29T02:07:30.812Z,1007.75
2022-11-29T02:08:30.719Z,1007.73
2022-11-29T02:09:30.726Z,1007.72
2022-11-29T02:10:30.687Z,1007.76
2022-11-29T02:11:30.672Z,1007.75
2022-11-29T02:12:30.654Z,1007.74
2022-11-29T02:13:30.648Z,1007.77
2022-11-29T02:14:30.642Z,1007.74
2022-11-29T02:15:30.725Z,1007.75
2022-11-29T02:16:30.616Z,1007.76
2022-11-29T02:17:30.624Z,1007.73
2022-11-29T02:18:30.616Z,1007.77
2022-11-29T02:19:30.583Z,1007.73
2022-11-29T02:20:30.589Z,1007.73
2022-11-29T02:21:30.589Z,1007.73
2022-11-29T02:22:30.566Z,1007.77
2022-11-29T02:23:30.548Z,1007.79
2022-11-29T02:24:30.594Z,1007.77
2022-11-29T02:25:30.526Z,1007.76
2022-11-29T02:26:30.506Z,1007.74
2022-11-29T02:27:30.497Z,1007.76
2022-11-29T02:28:30.505Z,1007.74
2022-11-29T02:29:30.494Z,1007.74
2022-11-29T02:30:30.517Z,1007.79
2022-11-29T02:31:30.461Z,1007.81
2022-11-29T02:32:30.462Z,1007.76
2022-11-29T02:33:30.454Z,1007.78
2022-11-29T02:34:30.474Z,1007.82
2022-11-29T02:35:30.414Z,1007.79
2022-11-29T02:36:30.394Z,1007.79
2022-11-29T02:37:30.383Z,1007.80
2022-11-29T02:38:30.395Z,1007.81
2022-11-29T02:39:30.375Z,1007.81
2022-11-29T02:40:30.348Z,1007.73
2022-11-29T02:41:30.355Z,1007.79
2022-11-29T02:42:30.374Z,1007.78
2022-11-29T02:43:30.341Z,1007.76
2022-11-29T02:44:30.331Z,1007.79
2022-11-29T02:45:30.301Z,1007.79
2022-11-29T02:47:21.706Z,1007.79
2022-11-29T02:48:23.215Z,1007.76
2022-11-29T02:49:22.698Z,1007.80
2022-11-29T02:50:22.693Z,1007.78
2022-11-29T02:51:22.646Z,1007.84
2022-11-29T02:52:22.643Z,1007.85
2022-11-29T02:53:22.643Z,1007.83
2022-11-29T02:54:22.640Z,1007.79
2022-11-29T02:55:22.672Z,1007.83
2022-11-29T02:56:22.621Z,1007.79
2022-11-29T02:57:22.600Z,1007.85
2022-11-29T02:58:22.584Z,1007.83
2022-11-29T02:59:22.664Z,1007.91
2022-11-29T03:00:22.556Z,1007.92
2022-11-29T03:01:22.639Z,1007.91
2022-11-29T03:02:22.617Z,1007.91
2022-11-29T03:03:22.511Z,1007.91
2022-11-29T03:04:22.514Z,1007.84
2022-11-29T03:05:22.501Z,1007.84
2022-11-29T03:06:22.495Z,1007.88
2022-11-29T03:07:22.517Z,1007.92
2022-11-29T03:08:22.485Z,1007.83
2022-11-29T03:09:22.445Z,1007.87
2022-11-29T03:10:22.444Z,1007.82
2022-11-29T03:11:22.442Z,1007.86
2022-11-29T03:12:22.430Z,1007.88
2022-11-29T03:13:22.424Z,1007.91
2022-11-29T03:14:22.408Z,1007.92
2022-11-29T03:15:22.387Z,1007.92
2022-11-29T03:16:22.400Z,1007.95
2022-11-29T03:17:22.367Z,1007.92
2022-11-29T03:18:22.349Z,1007.93
2022-11-29T03:19:22.388Z,1007.90
2022-11-29T03:20:22.345Z,1007.96
2022-11-29T03:21:22.343Z,1007.95
2022-11-29T03:22:22.304Z,1007.94
2022-11-29T03:23:22.333Z,1007.93
2022-11-29T03:24:22.307Z,1007.98
2022-11-29T03:25:22.284Z,1007.97
2022-11-29T03:26:22.353Z,1007.94
2022-11-29T03:27:28.825Z,1007.94
2022-11-29T03:28:22.265Z,1008.02
2022-11-29T03:29:22.283Z,1007.97
2022-11-29T03:30:22.242Z,1007.99
2022-11-29T03:31:22.247Z,1007.97
2022-11-29T03:32:22.193Z,1007.98
2022-11-29T03:33:22.200Z,1008.00
2022-11-29T03:34:22.167Z,1008.01
2022-11-29T03:35:22.168Z,1008.04
2022-11-29T03:36:22.174Z,1008.01
2022-11-29T03:37:22.143Z,1008.01
2022-11-29T03:38:22.128Z,1008.00
2022-11-29T03:39:22.126Z,1008.05
2022-11-29T03:40:22.114Z,1008.05
2022-11-29T03:41:22.132Z,1008.07
2022-11-29T03:42:22.081Z,1008.11
2022-11-29T03:43:22.100Z,1008.12
2022-11-29T03:44:22.066Z,1008.09
2022-11-29T03:45:22.066Z,1008.14
2022-11-29T03:46:22.080Z,1008.14
2022-11-29T03:47:22.050Z,1008.11
2022-11-29T03:48:22.033Z,1008.19
2022-11-29T03:49:22.010Z,1008.18
2022-11-29T03:50:22.022Z,1008.18
2022-11-29T03:51:21.991Z,1008.20
2022-11-29T03:52:21.997Z,1008.19
2022-11-29T03:53:21.989Z,1008.22
2022-11-29T03:54:21.952Z,1008.23
2022-11-29T03:55:21.966Z,1008.20
2022-11-29T03:56:21.926Z,1008.23
2022-11-29T03:57:28.538Z,1008.23
2022-11-29T03:58:21.907Z,1008.26
2022-11-29T03:59:21.929Z,1008.25
2022-11-29T04:00:21.918Z,1008.25
2022-11-29T04:01:21.981Z,1008.26
2022-11-29T04:02:21.915Z,1008.25
2022-11-29T04:03:21.887Z,1008.22
2022-11-29T04:04:21.858Z,1008.25
2022-11-29T04:05:21.835Z,1008.28
2022-11-29T04:06:21.847Z,1008.29
2022-11-29T04:07:21.869Z,1008.25
2022-11-29T04:08:21.794Z,1008.29
2022-11-29T04:09:21.800Z,1008.26
2022-11-29T04:10:21.793Z,1008.28
2022-11-29T04:11:21.797Z,1008.32
2022-11-29T04:12:21.768Z,1008.28
2022-11-29T04:13:21.748Z,1008.29
2022-11-29T04:14:21.733Z,1008.31
2022-11-29T04:15:21.744Z,1008.30
2022-11-29T04:16:21.794Z,1008.30
2022-11-29T04:17:28.269Z,1008.30
2022-11-29T04:18:21.682Z,1008.30
2022-11-29T04:19:21.715Z,1008.28
2022-11-29T04:20:21.682Z,1008.27
2022-11-29T04:21:21.676Z,1008.33
2022-11-29T04:22:21.651Z,1008.30
2022-11-29T04:23:21.648Z,1008.29
2022-11-29T04:24:21.641Z,1008.33
2022-11-29T04:25:21.617Z,1008.29
2022-11-29T04:26:21.594Z,1008.28
2022-11-29T04:27:21.600Z,1008.30
2022-11-29T04:28:21.624Z,1008.30
2022-11-29T04:29:21.571Z,1008.32
2022-11-29T04:30:21.560Z,1008.35
2022-11-29T04:31:21.595Z,1008.35
2022-11-29T04:32:21.539Z,1008.39
2022-11-29T04:33:21.526Z,1008.43
2022-11-29T04:34:21.515Z,1008.38
2022-11-29T04:35:21.533Z,1008.41
2022-11-29T04:36:21.508Z,1008.42
2022-11-29T04:37:21.502Z,1008.43
2022-11-29T04:38:21.486Z,1008.41
2022-11-29T04:39:21.468Z,1008.42
2022-11-29T04:40:21.443Z,1008.43
2022-11-29T04:41:21.458Z,1008.42
2022-11-29T04:42:21.418Z,1008.45
2022-11-29T04:43:21.442Z,1008.45
2022-11-29T04:44:21.392Z,1008.47
2022-11-29T04:45:21.390Z,1008.50
2022-11-29T04:46:21.434Z,1008.51
2022-11-29T04:47:21.391Z,1008.53
2022-11-29T04:48:21.387Z,1008.54
2022-11-29T04:49:21.340Z,1008.55
2022-11-29T04:50:21.356Z,1008.57
2022-11-29T04:51:21.344Z,1008.61
2022-11-29T04:52:21.331Z,1008.59
2022-11-29T04:53:21.325Z,1008.61
2022-11-29T04:54:21.309Z,1008.61
2022-11-29T04:55:29.287Z,1008.61
2022-11-29T04:56:21.318Z,1008.65
2022-11-29T04:57:21.270Z,1008.67
2022-11-29T04:58:21.272Z,1008.63
2022-11-29T04:59:21.297Z,1008.65
2022-11-29T05:00:21.255Z,1008.70
2022-11-29T05:01:21.292Z,1008.73
2022-11-29T05:02:21.273Z,1008.67
2022-11-29T05:03:21.208Z,1008.72
2022-11-29T05:04:21.198Z,1008.73
2022-11-29T05:05:21.174Z,1008.72
2022-11-29T05:06:21.182Z,1008.76
2022-11-29T05:07:27.746Z,1008.75
2022-11-29T05:08:21.161Z,1008.74
2022-11-29T05:09:21.142Z,1008.74
2022-11-29T05:10:21.115Z,1008.77
2022-11-29T05:11:26.492Z,1008.79
2022-11-29T05:12:21.144Z,1008.78
2022-11-29T05:13:21.072Z,1008.80
2022-11-29T05:14:21.096Z,1008.80
2022-11-29T05:15:21.097Z,1008.84
2022-11-29T05:16:21.134Z,1008.81
2022-11-29T05:17:21.028Z,1008.88
2022-11-29T05:18:21.033Z,1008.85
2022-11-29T05:19:21.028Z,1008.85
2022-11-29T05:20:21.029Z,1008.85
2022-11-29T05:21:21.003Z,1008.93
2022-11-29T05:22:20.997Z,1008.89
2022-11-29T05:23:20.991Z,1008.90
2022-11-29T05:24:20.977Z,1008.92
2022-11-29T05:25:20.947Z,1008.90
2022-11-29T05:26:20.941Z,1008.91
2022-11-29T05:27:28.521Z,1008.92
2022-11-29T05:28:20.934Z,1008.92
2022-11-29T05:29:20.921Z,1008.92
2022-11-29T05:30:20.967Z,1008.94
2022-11-29T05:31:20.939Z,1008.98
2022-11-29T05:32:20.871Z,1008.95
2022-11-29T05:33:20.887Z,1008.97
2022-11-29T05:34:20.847Z,1008.95
2022-11-29T05:35:20.903Z,1008.97
2022-11-29T05:36:20.857Z,1008.94
2022-11-29T05:37:20.817Z,1008.98
2022-11-29T05:38:20.822Z,1009.01
2022-11-29T05:39:20.782Z,1009.03
2022-11-29T05:40:20.799Z,1009.06
2022-11-29T05:41:20.799Z,1009.03
2022-11-29T05:42:20.789Z,1009.06
2022-11-29T05:43:20.768Z,1009.06
2022-11-29T05:44:20.738Z,1009.04
2022-11-29T05:45:20.720Z,1009.05
2022-11-29T05:46:20.775Z,1009.08
2022-11-29T05:47:20.698Z,1009.06
2022-11-29T05:48:20.701Z,1009.08
2022-11-29T05:49:20.743Z,1009.08
2022-11-29T05:50:20.689Z,1009.10
2022-11-29T05:51:20.663Z,1009.11
2022-11-29T05:52:20.699Z,1009.13
2022-11-29T05:53:20.630Z,1009.13
2022-11-29T05:54:20.673Z,1009.14
2022-11-29T05:55:20.634Z,1009.11
2022-11-29T05:56:20.631Z,1009.13
2022-11-29T05:57:27.710Z,1009.12
2022-11-29T05:58:22.527Z,1009.15
2022-11-29T05:59:20.585Z,1009.13
2022-11-29T06:00:20.582Z,1009.19
2022-11-29T06:01:20.619Z,1009.15
2022-11-29T06:02:20.565Z,1009.16
2022-11-29T06:03:20.653Z,1009.15
2022-11-29T06:04:20.524Z,1009.17
2022-11-29T06:05:20.496Z,1009.21
2022-11-29T06:06:20.511Z,1009.18
2022-11-29T06:07:20.518Z,1009.17
2022-11-29T06:08:20.471Z,1009.15
2022-11-29T06:09:20.487Z,1009.24
2022-11-29T06:10:20.490Z,1009.24
2022-11-29T06:11:20.472Z,1009.22
2022-11-29T06:12:21.342Z,1009.26
2022-11-29T06:13:20.406Z,1009.28
2022-11-29T06:14:20.415Z,1009.33
2022-11-29T06:15:20.414Z,1009.33
2022-11-29T06:16:20.432Z,1009.29
2022-11-29T06:17:20.438Z,1009.32
2022-11-29T06:18:20.362Z,1009.34
2022-11-29T06:19:20.341Z,1009.35
2022-11-29T06:20:20.466Z,1009.33
2022-11-29T06:21:20.348Z,1009.38
2022-11-29T06:22:20.346Z,1009.38
2022-11-29T06:23:20.317Z,1009.40
2022-11-29T06:24:25.512Z,1009.40
2022-11-29T06:25:20.319Z,1009.39
2022-11-29T06:26:20.286Z,1009.40
2022-11-29T06:27:20.261Z,1009.41
2022-11-29T06:28:20.311Z,1009.43
2022-11-29T06:29:20.245Z,1009.44
2022-11-29T06:30:20.254Z,1009.45
2022-11-29T06:31:20.315Z,1009.45
2022-11-29T06:32:20.288Z,1009.43
2022-11-29T06:33:20.194Z,1009.49
2022-11-29T06:34:20.238Z,1009.44
2022-11-29T06:35:20.213Z,1009.48
2022-11-29T06:36:20.221Z,1009.44
2022-11-29T06:37:20.170Z,1009.52
2022-11-29T06:38:20.169Z,1009.51
2022-11-29T06:39:20.138Z,1009.51
2022-11-29T06:40:21.113Z,1009.55
2022-11-29T06:41:20.127Z,1009.53
2022-11-29T06:42:20.150Z,1009.52
2022-11-29T06:43:20.119Z,1009.53
2022-11-29T06:44:20.080Z,1009.59
2022-11-29T06:45:20.063Z,1009.55
2022-11-29T06:46:20.140Z,1009.59
2022-11-29T06:47:20.093Z,1009.61
2022-11-29T06:48:20.061Z,1009.59
2022-11-29T06:49:20.042Z,1009.59
2022-11-29T06:50:20.065Z,1009.63
2022-11-29T06:51:20.017Z,1009.64
2022-11-29T06:52:20.013Z,1009.70
2022-11-29T06:53:19.996Z,1009.67
2022-11-29T06:54:19.987Z,1009.72
2022-11-29T06:55:19.964Z,1009.71
2022-11-29T06:56:20.021Z,1009.71
2022-11-29T06:57:19.977Z,1009.76
2022-11-29T06:58:19.956Z,1009.71
2022-11-29T06:59:19.935Z,1009.72
2022-11-29T07:00:19.946Z,1009.74
2022-11-29T07:01:19.985Z,1009.72
2022-11-29T07:02:19.954Z,1009.75
2022-11-29T07:03:20.164Z,1009.74
2022-11-29T07:04:19.883Z,1009.75
2022-11-29T07:05:19.973Z,1009.79
2022-11-29T07:06:19.872Z,1009.76
2022-11-29T07:07:19.892Z,1009.78
2022-11-29T07:08:19.848Z,1009.79
2022-11-29T07:09:19.818Z,1009.83
2022-11-29T07:10:19.811Z,1009.79
2022-11-29T07:11:19.822Z,1009.81
2022-11-29T07:12:19.776Z,1009.82
2022-11-29T07:13:19.761Z,1009.83
2022-11-29T07:14:19.764Z,1009.80
2022-11-29T07:15:20.406Z,1009.82
2022-11-29T07:16:20.453Z,1009.82
2022-11-29T07:17:19.761Z,1009.86
2022-11-29T07:18:19.694Z,1009.81
2022-11-29T07:19:19.719Z,1009.81
2022-11-29T07:20:19.679Z,1009.81
2022-11-29T07:21:19.701Z,1009.82
2022-11-29T07:22:19.679Z,1009.85
2022-11-29T07:23:19.680Z,1009.92
2022-11-29T07:24:19.667Z,1009.84
2022-11-29T07:25:19.641Z,1009.89
2022-11-29T07:26:19.901Z,1009.89
2022-11-29T07:27:34.392Z,1009.87
2022-11-29T07:28:19.639Z,1009.87
2022-11-29T07:29:19.626Z,1009.89
2022-11-29T07:30:20.415Z,1009.87
2022-11-29T07:31:19.601Z,1009.81
2022-11-29T07:32:19.570Z,1009.84
2022-11-29T07:33:19.549Z,1009.86
2022-11-29T07:34:19.654Z,1009.88
2022-11-29T07:35:19.635Z,1009.88
2022-11-29T07:36:19.502Z,1009.94
2022-11-29T07:37:19.510Z,1009.96
2022-11-29T07:38:19.488Z,1010.00
2022-11-29T07:39:19.474Z,1010.00
2022-11-29T07:40:19.491Z,1010.00
2022-11-29T07:41:19.483Z,1010.03
2022-11-29T07:42:19.505Z,1010.01
2022-11-29T07:43:20.652Z,1010.04
2022-11-29T07:44:19.426Z,1010.01
2022-11-29T07:45:19.422Z,1010.03
2022-11-29T07:46:19.533Z,1010.02
2022-11-29T07:47:19.433Z,1010.05
2022-11-29T07:48:19.374Z,1010.03
2022-11-29T07:49:19.425Z,1010.03
2022-11-29T07:50:19.361Z,1010.10
2022-11-29T07:51:19.350Z,1010.12
2022-11-29T07:52:19.357Z,1010.09
2022-11-29T07:53:19.364Z,1010.15
2022-11-29T07:54:19.313Z,1010.12
2022-11-29T07:55:19.435Z,1010.15
2022-11-29T07:56:19.305Z,1010.19
2022-11-29T07:57:19.280Z,1010.19
2022-11-29T07:58:19.371Z,1010.17
2022-11-29T07:59:19.260Z,1010.14
2022-11-29T08:00:19.236Z,1010.16
2022-11-29T08:01:19.256Z,1010.23
2022-11-29T08:02:19.268Z,1010.17
2022-11-29T08:03:19.248Z,1010.18
2022-11-29T08:04:19.888Z,1010.19
2022-11-29T08:05:19.285Z,1010.23
2022-11-29T08:06:19.197Z,1010.24
2022-11-29T08:07:19.209Z,1010.22
2022-11-29T08:08:19.188Z,1010.25
2022-11-29T08:09:19.952Z,1010.26
2022-11-29T08:10:19.126Z,1010.26
2022-11-29T08:11:19.118Z,1010.27
2022-11-29T08:12:19.150Z,1010.36
2022-11-29T08:13:19.107Z,1010.35
2022-11-29T08:14:19.100Z,1010.37
2022-11-29T08:15:19.082Z,1010.35
2022-11-29T08:16:19.155Z,1010.32
2022-11-29T08:17:19.080Z,1010.35
2022-11-29T08:18:19.105Z,1010.34
2022-11-29T08:19:19.080Z,1010.37
2022-11-29T08:20:19.058Z,1010.38
2022-11-29T08:21:19.039Z,1010.40
2022-11-29T08:22:19.023Z,1010.44
2022-11-29T08:23:19.001Z,1010.43
2022-11-29T08:24:18.976Z,1010.44
2022-11-29T08:25:18.999Z,1010.45
2022-11-29T08:26:19.218Z,1010.46
2022-11-29T08:27:18.971Z,1010.46
2022-11-29T08:28:19.134Z,1010.48
2022-11-29T08:29:18.943Z,1010.45
2022-11-29T08:30:18.943Z,1010.53
2022-11-29T08:31:18.992Z,1010.49
2022-11-29T08:32:18.903Z,1010.50
2022-11-29T08:33:18.874Z,1010.51
2022-11-29T08:34:18.858Z,1010.58
2022-11-29T08:35:18.878Z,1010.54
2022-11-29T08:36:18.921Z,1010.59
2022-11-29T08:37:26.376Z,1010.59
2022-11-29T08:38:18.858Z,1010.54
2022-11-29T08:39:18.826Z,1010.57
2022-11-29T08:40:18.824Z,1010.60
2022-11-29T08:41:18.795Z,1010.63
2022-11-29T08:42:18.810Z,1010.64
2022-11-29T08:43:18.781Z,1010.61
2022-11-29T08:44:18.801Z,1010.62
2022-11-29T08:45:18.763Z,1010.68
2022-11-29T08:46:19.156Z,1010.64
2022-11-29T08:47:18.726Z,1010.66
2022-11-29T08:48:18.723Z,1010.71
2022-11-29T08:49:18.729Z,1010.72
2022-11-29T08:50:18.685Z,1010.68
2022-11-29T08:51:18.688Z,1010.70
2022-11-29T08:52:18.716Z,1010.71
2022-11-29T08:53:18.642Z,1010.74
2022-11-29T08:54:18.662Z,1010.72
2022-11-29T08:55:18.640Z,1010.75
2022-11-29T08:58:18.605Z,1010.74
2022-11-29T08:59:18.602Z,1010.77
2022-11-29T09:00:18.578Z,1010.75
2022-11-29T09:01:18.708Z,1010.78
2022-11-29T09:02:18.600Z,1010.80
2022-11-29T09:03:18.541Z,1010.82
2022-11-29T09:04:18.538Z,1010.84
2022-11-29T09:05:18.515Z,1010.91
2022-11-29T09:06:18.524Z,1010.90
2022-11-29T09:07:18.610Z,1010.94
2022-11-29T09:08:18.482Z,1010.95
2022-11-29T09:09:18.508Z,1010.93
2022-11-29T09:10:18.482Z,1010.94
2022-11-29T09:11:22.176Z,1010.95
2022-11-29T09:12:18.500Z,1010.94
2022-11-29T09:13:18.450Z,1010.91
2022-11-29T09:14:18.454Z,1010.95
2022-11-29T09:15:18.436Z,1010.94
2022-11-29T09:16:18.425Z,1010.96
2022-11-29T09:17:18.392Z,1011.00
2022-11-29T09:18:18.399Z,1011.02
2022-11-29T09:19:18.392Z,1011.04
2022-11-29T09:20:18.391Z,1011.06
2022-11-29T09:21:18.388Z,1011.09
2022-11-29T09:22:18.328Z,1011.16
2022-11-29T09:23:18.337Z,1011.09
2022-11-29T09:24:18.315Z,1011.14
2022-11-29T09:25:18.309Z,1011.12
2022-11-29T09:26:18.309Z,1011.17
2022-11-29T09:27:18.269Z,1011.09
2022-11-29T09:28:18.268Z,1011.15
2022-11-29T09:29:18.499Z,1011.16
2022-11-29T09:30:23.471Z,1011.14
2022-11-29T09:31:28.273Z,1011.16
2022-11-29T09:32:18.242Z,1011.16
2022-11-29T09:33:18.229Z,1011.15
2022-11-29T09:34:18.209Z,1011.16
2022-11-29T09:35:18.185Z,1011.18
2022-11-29T09:36:18.181Z,1011.22
2022-11-29T09:37:18.196Z,1011.18
2022-11-29T09:38:18.214Z,1011.19
2022-11-29T09:39:18.152Z,1011.18
2022-11-29T09:40:18.148Z,1011.23
2022-11-29T09:41:18.115Z,1011.21
2022-11-29T09:42:18.135Z,1011.29
2022-11-29T09:43:18.112Z,1011.26
2022-11-29T09:44:18.125Z,1011.31
2022-11-29T09:45:18.091Z,1011.31
2022-11-29T09:46:18.232Z,1011.30
2022-11-29T09:47:18.075Z,1011.32
2022-11-29T09:48:18.056Z,1011.32
2022-11-29T09:49:18.041Z,1011.35
2022-11-29T09:50:18.030Z,1011.38
2022-11-29T09:51:18.064Z,1011.38
2022-11-29T09:52:18.031Z,1011.33
2022-11-29T09:53:18.000Z,1011.37
2022-11-29T09:54:17.994Z,1011.35
2022-11-29T09:55:17.977Z,1011.33
2022-11-29T09:56:17.975Z,1011.38
2022-11-29T09:57:24.027Z,1011.39
2022-11-29T09:58:17.977Z,1011.37
2022-11-29T09:59:17.934Z,1011.41
2022-11-29T10:00:17.937Z,1011.42
2022-11-29T10:01:17.939Z,1011.47
2022-11-29T10:02:21.334Z,1011.46
2022-11-29T10:03:17.926Z,1011.47
2022-11-29T10:04:17.979Z,1011.48
2022-11-29T10:05:17.868Z,1011.52
2022-11-29T10:06:17.891Z,1011.51
2022-11-29T10:07:17.915Z,1011.48
2022-11-29T10:08:17.881Z,1011.48
2022-11-29T10:09:18.139Z,1011.49
2022-11-29T10:10:17.861Z,1011.54
2022-11-29T10:11:17.778Z,1011.48
2022-11-29T10:12:17.812Z,1011.50
2022-11-29T10:13:17.784Z,1011.50
2022-11-29T10:14:17.776Z,1011.46
2022-11-29T10:15:17.737Z,1011.49
2022-11-29T10:16:17.812Z,1011.48
2022-11-29T10:17:17.730Z,1011.47
2022-11-29T10:18:17.727Z,1011.50
2022-11-29T10:19:17.850Z,1011.50
2022-11-29T10:20:17.792Z,1011.50
2022-11-29T10:21:17.755Z,1011.48
2022-11-29T10:22:17.683Z,1011.49
2022-11-29T10:23:17.700Z,1011.51
2022-11-29T10:24:17.731Z,1011.48
2022-11-29T10:25:17.662Z,1011.53
2022-11-29T10:26:17.644Z,1011.52
2022-11-29T10:27:17.614Z,1011.53
2022-11-29T10:28:17.628Z,1011.52
2022-11-29T10:29:17.613Z,1011.49
2022-11-29T10:30:17.669Z,1011.55
2022-11-29T10:31:17.668Z,1011.47
2022-11-29T10:32:17.550Z,1011.44
2022-11-29T10:33:17.564Z,1011.43
2022-11-29T10:34:17.560Z,1011.44
2022-11-29T10:35:17.566Z,1011.43
2022-11-29T10:36:17.528Z,1011.46
2022-11-29T10:37:17.535Z,1011.41
2022-11-29T10:38:32.990Z,1011.46
2022-11-29T10:39:17.513Z,1011.45
2022-11-29T10:40:17.559Z,1011.47
2022-11-29T10:41:17.493Z,1011.43
2022-11-29T10:42:18.029Z,1011.46
2022-11-29T10:43:17.457Z,1011.42
2022-11-29T10:44:17.434Z,1011.45
2022-11-29T10:45:17.441Z,1011.42
2022-11-29T10:46:17.438Z,1011.45
2022-11-29T10:47:17.607Z,1011.43
2022-11-29T10:48:17.384Z,1011.49
2022-11-29T10:49:17.395Z,1011.44
2022-11-29T10:50:17.398Z,1011.46
2022-11-29T10:51:17.392Z,1011.44
2022-11-29T10:52:17.340Z,1011.48
2022-11-29T10:53:17.364Z,1011.48
2022-11-29T10:54:17.376Z,1011.50
2022-11-29T10:55:17.299Z,1011.51
2022-11-29T10:56:17.327Z,1011.52
2022-11-29T10:57:17.271Z,1011.53
2022-11-29T10:58:17.331Z,1011.50
2022-11-29T10:59:17.759Z,1011.50
2022-11-29T11:00:17.303Z,1011.49
2022-11-29T11:01:17.364Z,1011.48
2022-11-29T11:02:17.206Z,1011.43
2022-11-29T11:03:17.224Z,1011.48
2022-11-29T11:04:17.257Z,1011.49
2022-11-29T11:05:17.262Z,1011.47
2022-11-29T11:06:17.176Z,1011.51
2022-11-29T11:07:17.212Z,1011.49
2022-11-29T11:08:17.181Z,1011.46
2022-11-29T11:09:17.181Z,1011.45
2022-11-29T11:10:17.162Z,1011.49
2022-11-29T11:11:17.164Z,1011.50
2022-11-29T11:12:17.170Z,1011.45
2022-11-29T11:13:17.099Z,1011.48
2022-11-29T11:14:17.226Z,1011.48
2022-11-29T11:15:17.073Z,1011.48
2022-11-29T11:16:17.158Z,1011.45
2022-11-29T11:17:17.096Z,1011.49
2022-11-29T11:18:17.148Z,1011.46
2022-11-29T11:19:18.050Z,1011.52
2022-11-29T11:20:17.301Z,1011.47
2022-11-29T11:21:17.036Z,1011.44
2022-11-29T11:22:17.034Z,1011.47
2022-11-29T11:23:17.037Z,1011.49
2022-11-29T11:24:17.016Z,1011.45
2022-11-29T11:25:17.011Z,1011.46
2022-11-29T11:26:16.970Z,1011.42
2022-11-29T11:27:16.983Z,1011.47
2022-11-29T11:28:16.961Z,1011.47
2022-11-29T11:29:16.941Z,1011.43
2022-11-29T11:30:16.939Z,1011.49
2022-11-29T11:31:19.365Z,1011.45
2022-11-29T11:32:17.522Z,1011.45
2022-11-29T11:33:16.882Z,1011.51
2022-11-29T11:34:16.881Z,1011.45
2022-11-29T11:35:18.507Z,1011.46
2022-11-29T11:36:16.877Z,1011.47
2022-11-29T11:37:16.871Z,1011.48
2022-11-29T11:38:16.834Z,1011.50
2022-11-29T11:39:16.822Z,1011.52
2022-11-29T11:40:16.876Z,1011.50
2022-11-29T11:41:16.803Z,1011.50
2022-11-29T11:42:16.848Z,1011.49
2022-11-29T11:43:16.760Z,1011.51
2022-11-29T11:44:45.643Z,1011.49
2022-11-29T11:45:16.768Z,1011.49
2022-11-29T11:46:18.187Z,1011.49
2022-11-29T11:47:16.768Z,1011.46
2022-11-29T11:48:16.739Z,1011.53
2022-11-29T11:49:16.697Z,1011.50
2022-11-29T11:50:16.715Z,1011.49
2022-11-29T11:51:16.707Z,1011.46
2022-11-29T11:52:16.681Z,1011.47
2022-11-29T11:53:16.667Z,1011.47
2022-11-29T11:54:17.618Z,1011.48
2022-11-29T11:55:16.656Z,1011.48
2022-11-29T11:56:16.651Z,1011.46
2022-11-29T11:57:16.626Z,1011.46
2022-11-29T11:58:16.610Z,1011.47
2022-11-29T11:59:16.584Z,1011.49
2022-11-29T12:00:18.844Z,1011.49
2022-11-29T12:01:16.578Z,1011.50
2022-11-29T12:02:16.616Z,1011.52
2022-11-29T12:03:16.639Z,1011.52
2022-11-29T12:04:16.556Z,1011.49
2022-11-29T12:05:16.567Z,1011.56
2022-11-29T12:06:16.510Z,1011.45
2022-11-29T12:07:16.609Z,1011.48
2022-11-29T12:08:16.623Z,1011.49